Terminal Aerodrome Forecast
Issued by NWS

Home | Current Version | Previous Version | Text Only | Print | Product List | Glossary On
Versions: 1 2 3 4 5 6 7 8 9 10 11 12 13 14 15 16 17 18 19 20 21 22 23 24 25
000
FTUS42 KMFL 220913 AAA
TAFOPF
TAF AMD
KOPF 220913Z 2209/2306 11008KT P6SM SCT035
      TEMPO 2209/2210 10008KT P6SM -SHRA SCT020 BKN035
     FM221500 12015G21KT P6SM SCT025 SCT040
     FM230000 11010KT P6SM BKN250=

USA.gov is the U.S. government's official web portal to all federal, state and local government web resources and services.